Latest Weather Observations for Robe Airport

IDS60801

Issued at 4:31 pm CST Monday 29 May 2017 (issued every 30 minutes, with the page automatically refreshed every 10 minutes)

About weather observations | Map of weather stations | Latest weather observations for SA | Other Formats
Station Details ID: 026105 Name: ROBE AIRFIELD Lat: -37.18 Lon: 139.81 Height: 3.0 m
Data from the previous 72 hours. | See also: Recent months at Robe Airport
Date/Time
CST
Temp
°C
App
Temp
°C
Dew
Point
°C
Rel
Hum
%
Delta-T
°C
Wind Press
QNH
hPa
Press
MSL
hPa
Rain since
9am
mm
Dir  Spd
km/h
Gust
km/h
Spd
kts
Gust
kts
29/04:30pm 13.5 12.4 12.1 91 0.8 W 9 15 5 8 1018.5 1018.5 1.2
29/04:00pm 13.6 11.9 12.3 92 0.7 W 13 22 7 12 1018.3 1018.3 1.2
29/03:30pm 13.3 11.2 12.4 94 0.5 WNW 15 24 8 13 1018.4 1018.4 0.6
29/03:00pm 13.9 11.1 12.5 91 0.8 NW 19 30 10 16 1018.3 1018.3 0.6
29/02:30pm 14.7 12.5 13.4 92 0.7 NW 17 22 9 12 1018.4 1018.4 0.6
29/02:00pm 13.7 11.5 13.2 97 0.3 NW 17 26 9 14 1018.5 1018.5 0.6
29/01:30pm 13.7 10.8 12.4 92 0.7 NW 19 26 10 14 1018.8 1018.8 0.0
29/01:00pm 15.0 11.4 11.8 81 1.7 NNW 22 32 12 17 1019.0 1019.0 0.0
29/12:30pm 14.5 10.5 11.7 83 1.5 NNW 24 33 13 18 1019.4 1019.4 0.0
29/12:00pm 15.4 11.8 12.0 80 1.8 NNW 22 32 12 17 1019.5 1019.5 0.0
29/11:30am 14.6 11.4 10.0 74 2.4 NNW 17 22 9 12 1019.9 1019.9 0.0
29/11:00am 14.6 13.0 10.2 75 2.3 NW 9 15 5 8 1020.1 1020.1 0.0
29/10:30am 15.4 13.7 10.0 70 2.8 NW 9 15 5 8 1020.3 1020.3 0.0
29/10:00am 14.3 12.4 9.1 71 2.6 WNW 9 13 5 7 1020.3 1020.3 0.0
29/09:30am 13.6 11.3 8.9 73 2.4 NW 11 17 6 9 1020.2 1020.2 0.0
29/09:00am 13.1 12.4 8.6 74 2.2 W 2 4 1 2 1020.1 1020.1 1.0
29/08:30am 12.4 11.7 8.5 77 1.9 W 2 4 1 2 1019.8 1019.8 1.0
29/08:00am 11.5 9.7 7.2 75 2.1 W 6 7 3 4 1019.6 1019.6 1.0
29/07:30am 10.7 8.8 6.6 76 1.9 W 6 7 3 4 1019.4 1019.4 1.0
29/07:00am 10.0 8.2 5.6 74 2.0 W 4 6 2 3 1019.2 1019.2 1.0
29/06:30am 10.4 8.1 5.0 69 2.4 W 6 7 3 4 1019.0 1019.0 1.0
29/06:00am 10.1 7.8 4.9 70 2.3 W 6 11 3 6 1018.8 1018.8 1.0
29/05:30am 10.7 8.4 4.6 66 2.7 W 6 9 3 5 1018.6 1018.6 1.0
29/05:00am 11.3 8.4 4.5 63 3.1 WSW 9 13 5 7 1018.6 1018.6 1.0
29/04:30am 11.1 8.6 5.0 66 2.8 W 7 15 4 8 1018.5 1018.5 1.0
29/04:00am 10.7 8.3 5.3 69 2.5 W 7 15 4 8 1018.3 1018.3 1.0
29/03:30am 11.0 8.3 5.5 69 2.5 WSW 9 15 5 8 1018.3 1018.3 1.0
29/03:00am 11.3 8.5 5.2 66 2.8 WSW 9 15 5 8 1018.1 1018.1 1.0
29/02:30am 11.0 8.5 4.9 66 2.8 WSW 7 13 4 7 1018.1 1018.1 1.0
29/02:00am 11.5 8.8 5.4 66 2.8 WSW 9 17 5 9 1018.0 1018.0 1.0
29/01:30am 11.5 8.4 5.4 66 2.8 WSW 11 20 6 11 1017.9 1017.9 1.0
29/01:00am 11.2 8.5 5.5 68 2.6 WSW 9 17 5 9 1017.8 1017.8 1.0
29/12:30am 11.1 7.3 5.6 69 2.5 WSW 15 26 8 14 1017.7 1017.7 1.0
29/12:00am 10.4 7.4 5.8 73 2.1 WSW 11 19 6 10 1017.6 1017.6 1.0
 
Date/Time
CST
Temp
°C
App
Temp
°C
Dew
Point
°C
Rel
Hum
%
Delta-T
°C
Wind Press
QNH
hPa
Press
MSL
hPa
Rain since
9am
mm
Dir  Spd
km/h
Gust
km/h
Spd
kts
Gust
kts
28/11:30pm 9.7 7.1 5.9 77 1.7 SW 9 17 5 9 1017.6 1017.6 1.0
28/11:00pm 10.7 7.5 7.0 78 1.8 W 13 24 7 13 1017.6 1017.6 0.6
28/10:30pm 10.3 7.3 5.9 74 2.0 SSW 11 15 6 8 1017.4 1017.4 0.4
28/10:00pm 11.3 8.3 6.2 71 2.4 SW 11 33 6 18 1017.4 1017.4 0.4
28/09:30pm 10.7 7.2 5.5 70 2.4 SSW 13 20 7 11 1017.2 1017.2 0.4
28/09:00pm 11.6 7.6 5.0 64 3.0 SW 15 28 8 15 1016.9 1016.9 0.4
28/08:30pm 11.1 6.7 5.0 66 2.8 SW 17 30 9 16 1016.5 1016.5 0.4
28/08:00pm 10.2 5.2 4.8 69 2.4 SW 20 33 11 18 1016.2 1016.2 0.4
28/07:30pm 10.8 7.5 6.4 74 2.1 SW 13 24 7 13 1015.9 1015.9 0.4
28/07:00pm 11.4 6.6 4.4 62 3.2 SW 19 28 10 15 1015.6 1015.6 0.4
28/06:30pm 11.5 7.1 4.7 63 3.1 SW 17 26 9 14 1015.1 1015.1 0.4
28/06:00pm 11.6 6.7 5.0 64 3.0 SW 20 32 11 17 1014.6 1014.6 0.4
28/05:30pm 10.6 6.8 5.6 71 2.3 WSW 15 30 8 16 1014.2 1014.2 0.4
28/05:00pm 11.4 6.1 5.1 65 2.9 SW 22 35 12 19 1013.8 1013.8 0.4
28/04:30pm 11.5 6.0 5.8 68 2.6 SW 24 35 13 19 1013.4 1013.4 0.4
28/04:00pm 10.6 6.4 7.5 81 1.5 SW 19 39 10 21 1013.0 1013.0 0.4
28/03:30pm 10.9 5.6 8.3 84 1.3 SSW 26 46 14 25 1012.7 1012.7 0.4
28/03:00pm 13.2 7.4 4.6 56 3.9 SW 24 35 13 19 1012.3 1012.3 0.0
28/02:35pm 12.7 6.3 5.1 60 3.5 SW 28 46 15 25 1012.2 1012.2 0.0
28/02:30pm 12.2 5.8 5.4 63 3.2 SSW 28 41 15 22 1012.2 1012.2 0.0
28/02:00pm 12.9 7.0 5.6 61 3.4 SW 26 43 14 23 1011.9 1011.9 0.0
28/01:30pm 13.9 7.9 5.3 56 4.0 SW 26 44 14 24 1011.5 1011.5 0.0
28/01:00pm 12.3 6.0 3.8 56 3.8 SW 26 44 14 24 1011.5 1011.5 0.0
28/12:30pm 12.9 7.2 5.1 59 3.6 SW 24 39 13 21 1011.4 1011.4 0.0
28/12:00pm 12.3 7.1 5.7 64 3.1 SW 22 41 12 22 1011.3 1011.3 0.0
28/11:30am 13.7 8.7 6.3 61 3.5 WSW 22 37 12 20 1011.4 1011.4 0.0
28/11:00am 12.9 7.3 5.6 61 3.4 SW 24 39 13 21 1011.4 1011.4 0.0
28/10:45am 12.3 6.0 5.5 63 3.2 SW 28 46 15 25 1011.4 1011.4 0.0
28/10:30am 12.2 6.7 3.9 57 3.7 SW 22 35 12 19 1011.3 1011.3 0.0
28/10:00am 11.7 7.0 6.2 69 2.6 WSW 20 35 11 19 1011.2 1011.2 0.0
28/09:30am 11.5 6.4 4.3 61 3.2 W 20 39 11 21 1010.9 1010.9 0.0
28/09:00am 12.2 6.9 4.9 61 3.3 WSW 22 35 12 19 1010.5 1010.5 5.4
28/08:30am 11.6 5.8 6.1 69 2.6 SW 26 39 14 21 1010.2 1010.2 5.4
28/08:00am 12.3 7.0 5.0 61 3.4 WSW 22 39 12 21 1009.8 1009.8 5.4
28/07:30am 11.4 7.1 5.1 65 2.9 WSW 17 30 9 16 1009.7 1009.7 5.4
28/07:00am 11.4 6.9 6.1 70 2.5 W 19 33 10 18 1009.4 1009.4 5.4
28/06:30am 12.0 6.4 5.4 64 3.1 W 24 41 13 22 1009.2 1009.2 5.4
28/06:00am 12.2 7.4 5.8 65 3.0 WSW 20 32 11 17 1009.1 1009.1 5.4
28/05:30am 12.4 7.9 6.0 65 3.0 WSW 19 32 10 17 1009.1 1009.1 5.4
28/05:00am 11.7 8.4 6.2 69 2.6 WSW 13 24 7 13 1009.0 1009.0 5.4
28/04:30am 11.2 8.1 7.3 77 1.9 SW 13 22 7 12 1008.9 1008.9 5.4
28/04:00am 12.1 8.6 7.0 71 2.4 WSW 15 28 8 15 1008.9 1008.9 5.4
28/03:30am 11.4 6.9 6.9 74 2.1 SW 20 32 11 17 1009.0 1009.0 5.4
28/03:00am 11.6 8.6 7.7 77 1.9 SW 13 22 7 12 1009.1 1009.1 5.4
28/02:30am 11.8 7.5 7.1 73 2.3 WSW 19 30 10 16 1009.1 1009.1 5.4
28/02:00am 11.3 7.5 7.6 78 1.8 WSW 17 30 9 16 1009.0 1009.0 5.4
28/01:30am 11.9 8.9 7.6 75 2.1 W 13 26 7 14 1009.0 1009.0 5.0
28/01:00am 11.5 8.2 8.2 80 1.6 WSW 15 30 8 16 1009.1 1009.1 5.0
28/12:30am 12.2 8.4 6.0 66 2.9 W 15 28 8 15 1009.1 1009.1 5.0
28/12:00am 11.6 8.2 5.9 68 2.7 W 13 20 7 11 1009.4 1009.4 5.0
 
Date/Time
CST
Temp
°C
App
Temp
°C
Dew
Point
°C
Rel
Hum
%
Delta-T
°C
Wind Press
QNH
hPa
Press
MSL
hPa
Rain since
9am
mm
Dir  Spd
km/h
Gust
km/h
Spd
kts
Gust
kts
27/11:30pm 10.9 8.0 6.6 75 2.0 W 11 19 6 10 1009.4 1009.4 5.0
27/11:00pm 12.0 8.8 6.9 71 2.4 WSW 13 20 7 11 1009.4 1009.4 5.0
27/10:30pm 12.0 8.5 7.1 72 2.4 WSW 15 26 8 14 1009.5 1009.5 5.0
27/10:00pm 11.7 8.7 7.8 77 1.9 WSW 13 24 7 13 1009.6 1009.6 5.0
27/09:30pm 12.1 8.9 8.4 78 1.8 WSW 15 26 8 14 1009.5 1009.5 5.0
27/09:00pm 11.3 7.3 9.2 87 1.1 SW 20 33 11 18 1009.5 1009.5 5.0
27/08:30pm 12.3 9.2 9.0 80 1.7 WSW 15 24 8 13 1009.1 1009.1 4.8
27/08:00pm 13.0 10.5 9.8 81 1.6 WSW 13 33 7 18 1009.3 1009.3 4.6
27/07:30pm 12.8 10.6 9.3 79 1.8 W 11 19 6 10 1008.9 1008.9 4.4
27/07:00pm 12.5 10.2 9.0 79 1.8 WSW 11 17 6 9 1008.7 1008.7 4.4
27/06:30pm 12.3 9.8 9.7 84 1.3 WSW 13 24 7 13 1008.2 1008.2 4.4
27/06:00pm 12.2 8.4 9.9 86 1.2 SW 20 33 11 18 1008.1 1008.1 4.4
27/05:30pm 12.9 9.9 12.0 94 0.5 W 19 32 10 17 1008.0 1008.0 4.4
27/05:00pm 13.8 12.7 13.0 95 0.4 NW 11 15 6 8 1007.4 1007.4 3.8
27/04:30pm 13.4 11.7 12.6 95 0.4 WNW 13 20 7 11 1007.8 1007.8 3.8
27/04:00pm 13.3 11.3 12.7 96 0.3 WNW 15 20 8 11 1007.9 1007.9 3.6
27/03:30pm 13.7 9.0 12.1 90 0.9 WNW 28 43 15 23 1008.1 1008.1 1.4
27/03:00pm 14.3 10.5 11.3 82 1.6 WNW 22 35 12 19 1007.2 1007.2 0.2
27/02:30pm 14.9 9.8 10.5 75 2.3 WNW 28 43 15 23 1007.7 1007.7 0.0
27/02:00pm 16.8 13.5 13.9 83 1.6 NNW 24 32 13 17 1007.8 1007.8 0.0
27/01:30pm 17.0 13.2 13.7 81 1.9 NNW 26 33 14 18 1008.1 1008.1 0.0
27/01:00pm 18.2 13.9 13.1 72 2.9 NNW 28 39 15 21 1008.2 1008.2 0.0
27/12:30pm 17.7 12.2 11.9 69 3.2 NNW 32 43 17 23 1008.7 1008.7 0.0
27/12:00pm 17.7 11.5 11.5 67 3.4 NNW 35 48 19 26 1009.3 1009.3 0.0
27/11:30am 17.2 11.3 11.0 67 3.3 N 33 50 18 27 1009.8 1009.8 0.0
27/11:24am 17.5 11.8 11.3 67 3.4 N 32 50 17 27 1009.9 1009.9 0.0
27/11:00am 17.0 11.7 11.3 69 3.1 N 30 43 16 23 1010.3 1010.3 0.0
27/10:30am 15.2 9.7 10.4 73 2.5 N 30 39 16 21 1010.8 1010.8 0.0
27/10:00am 15.3 9.7 10.3 72 2.6 N 30 39 16 21 1011.2 1011.2 0.0
27/09:30am 14.4 10.7 10.2 76 2.2 N 20 30 11 16 1011.3 1011.3 0.0
27/09:00am 12.8 8.9 9.3 79 1.8 N 20 26 11 14 1011.6 1011.6 0.0
27/08:30am 12.3 7.8 8.6 78 1.8 N 22 28 12 15 1011.7 1011.7 0.0
27/08:00am 12.0 7.9 8.5 79 1.7 N 20 28 11 15 1011.8 1011.8 0.0
27/07:30am 12.3 8.2 8.8 79 1.7 N 20 28 11 15 1011.8 1011.8 0.0
27/07:00am 13.2 9.0 9.6 79 1.8 N 22 28 12 15 1012.1 1012.1 0.0
27/06:30am 14.0 9.9 10.0 77 2.1 N 22 33 12 18 1012.2 1012.2 0.0
27/06:00am 13.8 9.3 10.0 78 2.0 N 24 32 13 17 1012.3 1012.3 0.0
27/05:30am 13.6 9.9 10.0 79 1.9 N 20 30 11 16 1012.5 1012.5 0.0
27/05:00am 13.0 9.2 9.8 81 1.6 N 20 28 11 15 1012.6 1012.6 0.0
27/04:30am 12.9 8.7 9.9 82 1.5 N 22 32 12 17 1012.7 1012.7 0.0
27/04:00am 12.0 9.1 9.6 85 1.2 N 15 20 8 11 1012.9 1012.9 0.0
27/03:30am 11.7 8.4 9.4 86 1.2 N 17 24 9 13 1013.2 1013.2 0.0
27/03:00am 11.7 8.7 9.4 86 1.2 N 15 19 8 10 1013.5 1013.5 0.0
27/02:30am 11.4 8.1 9.5 88 1.0 N 17 19 9 10 1013.7 1013.7 0.0
27/02:00am 12.0 8.2 9.9 87 1.1 N 20 26 11 14 1013.8 1013.8 0.0
27/01:30am 11.9 8.3 10.0 88 1.0 N 19 22 10 12 1014.1 1014.1 0.0
27/01:00am 11.7 8.5 9.9 89 0.9 N 17 26 9 14 1014.4 1014.4 0.0
27/12:30am 11.9 8.7 10.0 88 1.0 N 17 22 9 12 1014.7 1014.7 0.0
27/12:00am 12.1 8.6 10.2 88 1.0 N 19 24 10 13 1014.9 1014.9 0.0
 
Date/Time
CST
Temp
°C
App
Temp
°C
Dew
Point
°C
Rel
Hum
%
Delta-T
°C
Wind Press
QNH
hPa
Press
MSL
hPa
Rain since
9am
mm
Dir  Spd
km/h
Gust
km/h
Spd
kts
Gust
kts
26/11:30pm 12.3 8.7 10.4 88 1.0 N 20 26 11 14 1015.1 1015.1 0.0
26/11:00pm 12.1 9.0 10.3 89 0.9 N 17 24 9 13 1015.5 1015.5 0.0
26/10:30pm 11.9 9.2 10.5 91 0.7 NNE 15 20 8 11 1015.7 1015.7 0.0
26/10:00pm 11.4 8.7 10.3 93 0.6 NNE 15 19 8 10 1016.0 1016.0 0.0
26/09:30pm 11.2 8.8 10.1 93 0.6 NNE 13 17 7 9 1016.3 1016.3 0.0
26/09:00pm 11.3 9.0 10.4 94 0.5 NNE 13 17 7 9 1016.5 1016.5 0.0
26/08:30pm 10.9 8.9 10.1 95 0.4 NNE 11 13 6 7 1016.7 1016.7 0.0
26/08:00pm 11.3 9.0 10.4 94 0.5 NNE 13 15 7 8 1016.9 1016.9 0.0
26/07:30pm 11.4 9.1 10.5 94 0.5 NNE 13 17 7 9 1017.0 1017.0 0.0
26/07:00pm 11.3 9.4 10.4 94 0.5 N 11 11 6 6 1017.3 1017.3 0.0
26/06:30pm 11.6 9.7 10.5 93 0.6 N 11 13 6 7 1017.3 1017.3 0.0
26/06:00pm 12.1 10.1 10.3 89 0.9 N 11 15 6 8 1017.3 1017.3 0.0
26/05:30pm 12.6 10.7 10.5 87 1.1 N 11 13 6 7 1017.2 1017.2 0.0
26/05:00pm 14.1 12.0 11.1 82 1.6 N 13 17 7 9 1017.4 1017.4 0.0

Other Formats:

Comma delimited format used in spreadsheet applications
http://www.bom.gov.au/fwo/IDS60801/IDS60801.95816.axf

JavaScript Object Notation format (JSON) in row-major order
http://www.bom.gov.au/fwo/IDS60801/IDS60801.95816.json